sensor_id;sensor_type;location;lat;lon;timestamp;temperature;humidity
8715;DHT22;4394;51.208;8.904;2023-08-31T00:02:14;13.20;99.90
8715;DHT22;4394;51.208;8.904;2023-08-31T00:05:02;13.20;99.90
8715;DHT22;4394;51.208;8.904;2023-08-31T00:07:52;13.20;99.90
8715;DHT22;4394;51.208;8.904;2023-08-31T00:10:40;13.10;99.90
8715;DHT22;4394;51.208;8.904;2023-08-31T00:13:28;13.10;99.90
8715;DHT22;4394;51.208;8.904;2023-08-31T00:16:24;13.00;99.90
8715;DHT22;4394;51.208;8.904;2023-08-31T00:19:14;13.10;99.90
8715;DHT22;4394;51.208;8.904;2023-08-31T00:22:02;13.00;99.90
8715;DHT22;4394;51.208;8.904;2023-08-31T00:24:50;13.10;99.90
8715;DHT22;4394;51.208;8.904;2023-08-31T00:27:39;13.10;99.90
8715;DHT22;4394;51.208;8.904;2023-08-31T00:30:29;13.10;99.90
8715;DHT22;4394;51.208;8.904;2023-08-31T00:33:19;13.10;99.90
8715;DHT22;4394;51.208;8.904;2023-08-31T00:36:07;13.10;99.90
8715;DHT22;4394;51.208;8.904;2023-08-31T00:38:55;13.20;99.90
8715;DHT22;4394;51.208;8.904;2023-08-31T00:41:43;13.20;99.90
8715;DHT22;4394;51.208;8.904;2023-08-31T00:44:32;13.20;99.90
8715;DHT22;4394;51.208;8.904;2023-08-31T00:47:21;13.20;99.90
8715;DHT22;4394;51.208;8.904;2023-08-31T00:50:10;13.30;99.90
8715;DHT22;4394;51.208;8.904;2023-08-31T00:52:59;13.20;99.90
8715;DHT22;4394;51.208;8.904;2023-08-31T00:55:47;13.30;99.90
8715;DHT22;4394;51.208;8.904;2023-08-31T00:58:35;13.30;99.90
8715;DHT22;4394;51.208;8.904;2023-08-31T01:01:27;13.30;99.90
8715;DHT22;4394;51.208;8.904;2023-08-31T01:04:21;13.20;99.90
8715;DHT22;4394;51.208;8.904;2023-08-31T01:07:23;13.20;99.90
8715;DHT22;4394;51.208;8.904;2023-08-31T01:10:20;13.10;99.90
8715;DHT22;4394;51.208;8.904;2023-08-31T01:13:14;13.20;99.90
8715;DHT22;4394;51.208;8.904;2023-08-31T01:16:06;13.20;99.90
8715;DHT22;4394;51.208;8.904;2023-08-31T01:18:56;13.20;99.90
8715;DHT22;4394;51.208;8.904;2023-08-31T01:21:46;13.20;99.90
8715;DHT22;4394;51.208;8.904;2023-08-31T01:24:37;13.20;99.90
8715;DHT22;4394;51.208;8.904;2023-08-31T01:27:25;13.20;99.90
8715;DHT22;4394;51.208;8.904;2023-08-31T01:30:13;13.10;99.90
8715;DHT22;4394;51.208;8.904;2023-08-31T01:33:02;13.10;99.90
8715;DHT22;4394;51.208;8.904;2023-08-31T01:35:52;13.10;99.90
8715;DHT22;4394;51.208;8.904;2023-08-31T01:38:45;13.10;99.90
8715;DHT22;4394;51.208;8.904;2023-08-31T01:41:36;13.10;99.90
8715;DHT22;4394;51.208;8.904;2023-08-31T01:44:26;13.10;99.90
8715;DHT22;4394;51.208;8.904;2023-08-31T01:47:15;13.40;99.90
8715;DHT22;4394;51.208;8.904;2023-08-31T01:50:06;13.30;99.90
8715;DHT22;4394;51.208;8.904;2023-08-31T01:52:54;13.20;99.90
8715;DHT22;4394;51.208;8.904;2023-08-31T01:55:42;13.10;99.90
8715;DHT22;4394;51.208;8.904;2023-08-31T01:58:32;13.10;99.90
8715;DHT22;4394;51.208;8.904;2023-08-31T02:01:20;13.10;99.90
8715;DHT22;4394;51.208;8.904;2023-08-31T02:04:08;13.10;99.90
8715;DHT22;4394;51.208;8.904;2023-08-31T02:06:56;13.10;99.90
8715;DHT22;4394;51.208;8.904;2023-08-31T02:09:44;13.10;99.90
8715;DHT22;4394;51.208;8.904;2023-08-31T02:12:32;13.10;99.90
8715;DHT22;4394;51.208;8.904;2023-08-31T02:15:24;13.00;99.90
8715;DHT22;4394;51.208;8.904;2023-08-31T02:18:12;13.00;99.90
8715;DHT22;4394;51.208;8.904;2023-08-31T02:21:00;12.90;99.90
8715;DHT22;4394;51.208;8.904;2023-08-31T02:23:51;13.00;99.90
8715;DHT22;4394;51.208;8.904;2023-08-31T02:26:39;12.90;99.90
8715;DHT22;4394;51.208;8.904;2023-08-31T02:29:27;12.90;99.90
8715;DHT22;4394;51.208;8.904;2023-08-31T02:32:16;12.80;99.90
8715;DHT22;4394;51.208;8.904;2023-08-31T02:35:05;12.90;99.90
8715;DHT22;4394;51.208;8.904;2023-08-31T02:37:54;12.90;99.90
8715;DHT22;4394;51.208;8.904;2023-08-31T02:40:42;12.90;99.90
8715;DHT22;4394;51.208;8.904;2023-08-31T02:43:30;12.90;99.90
8715;DHT22;4394;51.208;8.904;2023-08-31T02:46:19;12.90;99.90
8715;DHT22;4394;51.208;8.904;2023-08-31T02:49:09;12.90;99.90
8715;DHT22;4394;51.208;8.904;2023-08-31T02:51:57;12.90;99.90
8715;DHT22;4394;51.208;8.904;2023-08-31T02:54:45;12.90;99.90
8715;DHT22;4394;51.208;8.904;2023-08-31T02:57:33;12.90;99.90
8715;DHT22;4394;51.208;8.904;2023-08-31T03:00:21;12.90;99.90
8715;DHT22;4394;51.208;8.904;2023-08-31T03:03:09;13.40;99.90
8715;DHT22;4394;51.208;8.904;2023-08-31T03:06:00;13.20;99.90
8715;DHT22;4394;51.208;8.904;2023-08-31T03:08:48;13.10;99.90
8715;DHT22;4394;51.208;8.904;2023-08-31T03:11:36;13.10;99.90
8715;DHT22;4394;51.208;8.904;2023-08-31T03:14:24;13.00;99.90
8715;DHT22;4394;51.208;8.904;2023-08-31T03:17:12;13.50;99.90
8715;DHT22;4394;51.208;8.904;2023-08-31T03:20:00;13.30;99.90
8715;DHT22;4394;51.208;8.904;2023-08-31T03:22:54;13.20;99.90
8715;DHT22;4394;51.208;8.904;2023-08-31T03:25:42;13.10;99.90
8715;DHT22;4394;51.208;8.904;2023-08-31T03:28:30;13.00;99.90
8715;DHT22;4394;51.208;8.904;2023-08-31T03:31:19;13.00;99.90
8715;DHT22;4394;51.208;8.904;2023-08-31T03:34:07;12.90;99.90
8715;DHT22;4394;51.208;8.904;2023-08-31T03:36:55;12.90;99.90
8715;DHT22;4394;51.208;8.904;2023-08-31T03:39:47;12.90;99.90
8715;DHT22;4394;51.208;8.904;2023-08-31T03:42:35;12.80;99.90
8715;DHT22;4394;51.208;8.904;2023-08-31T03:45:24;12.80;99.90
8715;DHT22;4394;51.208;8.904;2023-08-31T03:48:12;12.80;99.90
8715;DHT22;4394;51.208;8.904;2023-08-31T03:51:00;12.80;99.90
8715;DHT22;4394;51.208;8.904;2023-08-31T03:53:49;12.80;99.90
8715;DHT22;4394;51.208;8.904;2023-08-31T03:56:38;12.80;99.90
8715;DHT22;4394;51.208;8.904;2023-08-31T03:59:26;12.80;99.90
8715;DHT22;4394;51.208;8.904;2023-08-31T04:02:15;12.80;99.90
8715;DHT22;4394;51.208;8.904;2023-08-31T04:05:03;12.80;99.90
8715;DHT22;4394;51.208;8.904;2023-08-31T04:07:52;12.80;99.90
8715;DHT22;4394;51.208;8.904;2023-08-31T04:10:40;12.80;99.90
8715;DHT22;4394;51.208;8.904;2023-08-31T04:13:29;12.80;99.90
8715;DHT22;4394;51.208;8.904;2023-08-31T04:16:17;12.80;99.90
8715;DHT22;4394;51.208;8.904;2023-08-31T04:19:05;12.80;99.90
8715;DHT22;4394;51.208;8.904;2023-08-31T04:21:54;12.80;99.90
8715;DHT22;4394;51.208;8.904;2023-08-31T04:24:42;12.80;99.90
8715;DHT22;4394;51.208;8.904;2023-08-31T04:27:30;12.70;99.90
8715;DHT22;4394;51.208;8.904;2023-08-31T04:30:20;12.70;99.90
8715;DHT22;4394;51.208;8.904;2023-08-31T04:33:08;12.80;99.90
8715;DHT22;4394;51.208;8.904;2023-08-31T04:35:57;12.80;99.90
8715;DHT22;4394;51.208;8.904;2023-08-31T04:38:45;12.80;99.90
8715;DHT22;4394;51.208;8.904;2023-08-31T04:41:33;12.70;99.90
8715;DHT22;4394;51.208;8.904;2023-08-31T04:44:21;12.70;99.90
8715;DHT22;4394;51.208;8.904;2023-08-31T04:47:11;12.70;99.90
8715;DHT22;4394;51.208;8.904;2023-08-31T04:49:59;12.70;99.90
8715;DHT22;4394;51.208;8.904;2023-08-31T04:52:47;12.60;99.90
8715;DHT22;4394;51.208;8.904;2023-08-31T04:55:36;12.60;99.90
8715;DHT22;4394;51.208;8.904;2023-08-31T04:58:24;12.60;99.90
8715;DHT22;4394;51.208;8.904;2023-08-31T05:01:12;12.60;99.90
8715;DHT22;4394;51.208;8.904;2023-08-31T05:04:03;12.60;99.90
8715;DHT22;4394;51.208;8.904;2023-08-31T05:06:51;12.60;99.90
8715;DHT22;4394;51.208;8.904;2023-08-31T05:09:39;12.60;99.90
8715;DHT22;4394;51.208;8.904;2023-08-31T05:12:27;12.60;99.90
8715;DHT22;4394;51.208;8.904;2023-08-31T05:15:15;12.60;99.90
8715;DHT22;4394;51.208;8.904;2023-08-31T05:18:04;12.60;99.90
8715;DHT22;4394;51.208;8.904;2023-08-31T05:20:57;12.70;99.90
8715;DHT22;4394;51.208;8.904;2023-08-31T05:23:45;12.70;99.90
8715;DHT22;4394;51.208;8.904;2023-08-31T05:26:33;12.70;99.90
8715;DHT22;4394;51.208;8.904;2023-08-31T05:29:21;12.70;99.90
8715;DHT22;4394;51.208;8.904;2023-08-31T05:32:09;12.70;99.90
8715;DHT22;4394;51.208;8.904;2023-08-31T05:34:57;12.80;99.90
8715;DHT22;4394;51.208;8.904;2023-08-31T05:37:47;12.70;99.90
8715;DHT22;4394;51.208;8.904;2023-08-31T05:40:35;12.80;99.90
8715;DHT22;4394;51.208;8.904;2023-08-31T05:43:24;12.70;99.90
8715;DHT22;4394;51.208;8.904;2023-08-31T05:46:12;12.80;99.90
8715;DHT22;4394;51.208;8.904;2023-08-31T05:49:00;12.80;99.90
8715;DHT22;4394;51.208;8.904;2023-08-31T05:51:48;12.90;99.90
8715;DHT22;4394;51.208;8.904;2023-08-31T05:54:38;12.90;99.90
8715;DHT22;4394;51.208;8.904;2023-08-31T05:57:26;12.90;99.90
8715;DHT22;4394;51.208;8.904;2023-08-31T06:00:16;13.00;99.90
8715;DHT22;4394;51.208;8.904;2023-08-31T06:03:05;13.00;99.90
8715;DHT22;4394;51.208;8.904;2023-08-31T06:05:53;13.00;99.90
8715;DHT22;4394;51.208;8.904;2023-08-31T06:08:41;13.00;99.90
8715;DHT22;4394;51.208;8.904;2023-08-31T06:11:31;13.00;99.90
8715;DHT22;4394;51.208;8.904;2023-08-31T06:14:19;13.10;99.90
8715;DHT22;4394;51.208;8.904;2023-08-31T06:17:07;13.10;99.90
8715;DHT22;4394;51.208;8.904;2023-08-31T06:19:58;13.20;99.90
8715;DHT22;4394;51.208;8.904;2023-08-31T06:22:46;13.30;99.90
8715;DHT22;4394;51.208;8.904;2023-08-31T06:25:34;13.30;99.90
8715;DHT22;4394;51.208;8.904;2023-08-31T06:28:24;13.30;99.90
8715;DHT22;4394;51.208;8.904;2023-08-31T06:31:12;13.30;99.90
8715;DHT22;4394;51.208;8.904;2023-08-31T06:34:00;13.30;99.90
8715;DHT22;4394;51.208;8.904;2023-08-31T06:36:52;13.30;99.90
8715;DHT22;4394;51.208;8.904;2023-08-31T06:39:55;13.30;99.90
8715;DHT22;4394;51.208;8.904;2023-08-31T06:42:48;13.30;99.90
8715;DHT22;4394;51.208;8.904;2023-08-31T06:45:39;13.30;99.90
8715;DHT22;4394;51.208;8.904;2023-08-31T06:48:27;13.30;99.90
8715;DHT22;4394;51.208;8.904;2023-08-31T06:51:16;13.30;99.90
8715;DHT22;4394;51.208;8.904;2023-08-31T06:54:04;13.30;99.90
8715;DHT22;4394;51.208;8.904;2023-08-31T06:56:53;13.30;99.90
8715;DHT22;4394;51.208;8.904;2023-08-31T06:59:41;13.30;99.90
8715;DHT22;4394;51.208;8.904;2023-08-31T07:02:32;13.40;99.90
8715;DHT22;4394;51.208;8.904;2023-08-31T07:05:25;13.40;99.90
8715;DHT22;4394;51.208;8.904;2023-08-31T07:08:15;13.50;99.90
8715;DHT22;4394;51.208;8.904;2023-08-31T07:11:03;13.60;99.90
8715;DHT22;4394;51.208;8.904;2023-08-31T07:13:51;13.60;99.90
8715;DHT22;4394;51.208;8.904;2023-08-31T07:16:39;13.70;99.90
8715;DHT22;4394;51.208;8.904;2023-08-31T07:19:29;13.70;99.90
8715;DHT22;4394;51.208;8.904;2023-08-31T07:22:17;13.80;99.90
8715;DHT22;4394;51.208;8.904;2023-08-31T07:25:06;13.80;99.90
8715;DHT22;4394;51.208;8.904;2023-08-31T07:27:54;13.90;99.90
8715;DHT22;4394;51.208;8.904;2023-08-31T07:30:42;13.90;99.90
8715;DHT22;4394;51.208;8.904;2023-08-31T07:33:31;14.00;99.90
8715;DHT22;4394;51.208;8.904;2023-08-31T07:36:21;14.00;99.90
8715;DHT22;4394;51.208;8.904;2023-08-31T07:39:09;14.10;99.90
8715;DHT22;4394;51.208;8.904;2023-08-31T07:41:57;14.50;99.90
8715;DHT22;4394;51.208;8.904;2023-08-31T07:44:46;14.50;99.90
8715;DHT22;4394;51.208;8.904;2023-08-31T07:47:34;14.50;99.90
8715;DHT22;4394;51.208;8.904;2023-08-31T07:50:22;14.50;99.90
8715;DHT22;4394;51.208;8.904;2023-08-31T07:53:12;14.60;99.90
8715;DHT22;4394;51.208;8.904;2023-08-31T07:56:00;14.90;99.90
8715;DHT22;4394;51.208;8.904;2023-08-31T07:58:49;14.80;99.90
8715;DHT22;4394;51.208;8.904;2023-08-31T08:01:37;14.70;99.90
8715;DHT22;4394;51.208;8.904;2023-08-31T08:04:25;14.70;99.90
8715;DHT22;4394;51.208;8.904;2023-08-31T08:07:14;14.70;99.90
8715;DHT22;4394;51.208;8.904;2023-08-31T08:10:04;14.70;99.90
8715;DHT22;4394;51.208;8.904;2023-08-31T08:12:52;14.70;99.90
8715;DHT22;4394;51.208;8.904;2023-08-31T08:15:42;14.60;99.90
8715;DHT22;4394;51.208;8.904;2023-08-31T08:18:31;14.70;99.90
8715;DHT22;4394;51.208;8.904;2023-08-31T08:21:19;14.70;99.90
8715;DHT22;4394;51.208;8.904;2023-08-31T08:24:07;14.90;99.90
8715;DHT22;4394;51.208;8.904;2023-08-31T08:26:56;14.90;99.90
8715;DHT22;4394;51.208;8.904;2023-08-31T08:29:45;14.90;99.90
8715;DHT22;4394;51.208;8.904;2023-08-31T08:32:33;15.00;99.90
8715;DHT22;4394;51.208;8.904;2023-08-31T08:35:22;15.00;99.90
8715;DHT22;4394;51.208;8.904;2023-08-31T08:38:11;15.10;99.90
8715;DHT22;4394;51.208;8.904;2023-08-31T08:41:04;15.10;99.90
8715;DHT22;4394;51.208;8.904;2023-08-31T08:43:54;15.10;99.90
8715;DHT22;4394;51.208;8.904;2023-08-31T08:46:44;15.00;99.90
8715;DHT22;4394;51.208;8.904;2023-08-31T08:49:33;15.10;99.90
8715;DHT22;4394;51.208;8.904;2023-08-31T08:52:23;15.10;99.90
8715;DHT22;4394;51.208;8.904;2023-08-31T08:55:11;15.10;99.90
8715;DHT22;4394;51.208;8.904;2023-08-31T08:58:00;15.20;99.90
8715;DHT22;4394;51.208;8.904;2023-08-31T09:00:50;15.30;99.90
8715;DHT22;4394;51.208;8.904;2023-08-31T09:03:40;15.40;99.90
8715;DHT22;4394;51.208;8.904;2023-08-31T09:06:28;15.50;99.90
8715;DHT22;4394;51.208;8.904;2023-08-31T09:09:17;15.50;99.90
8715;DHT22;4394;51.208;8.904;2023-08-31T09:12:09;15.60;99.90
8715;DHT22;4394;51.208;8.904;2023-08-31T09:14:58;15.70;99.90
8715;DHT22;4394;51.208;8.904;2023-08-31T09:17:47;15.70;99.90
8715;DHT22;4394;51.208;8.904;2023-08-31T09:20:45;15.80;99.90
8715;DHT22;4394;51.208;8.904;2023-08-31T09:23:34;16.00;99.90
8715;DHT22;4394;51.208;8.904;2023-08-31T09:26:23;15.80;99.90
8715;DHT22;4394;51.208;8.904;2023-08-31T09:29:11;15.70;99.90
8715;DHT22;4394;51.208;8.904;2023-08-31T09:31:59;15.60;99.90
8715;DHT22;4394;51.208;8.904;2023-08-31T09:34:48;15.70;99.90
8715;DHT22;4394;51.208;8.904;2023-08-31T09:37:55;15.70;99.90
8715;DHT22;4394;51.208;8.904;2023-08-31T09:40:45;15.70;99.90
8715;DHT22;4394;51.208;8.904;2023-08-31T09:43:33;15.80;99.90
8715;DHT22;4394;51.208;8.904;2023-08-31T09:46:22;15.90;99.90
8715;DHT22;4394;51.208;8.904;2023-08-31T09:49:14;15.90;99.90
8715;DHT22;4394;51.208;8.904;2023-08-31T09:52:05;15.90;99.90
8715;DHT22;4394;51.208;8.904;2023-08-31T09:54:54;16.00;99.90
8715;DHT22;4394;51.208;8.904;2023-08-31T09:57:43;16.00;99.90
8715;DHT22;4394;51.208;8.904;2023-08-31T10:00:41;16.10;99.90
8715;DHT22;4394;51.208;8.904;2023-08-31T10:03:30;16.10;99.90
8715;DHT22;4394;51.208;8.904;2023-08-31T10:06:18;16.10;99.90
8715;DHT22;4394;51.208;8.904;2023-08-31T10:09:09;16.10;99.90
8715;DHT22;4394;51.208;8.904;2023-08-31T10:11:58;16.20;99.90
8715;DHT22;4394;51.208;8.904;2023-08-31T10:14:48;16.30;99.90
8715;DHT22;4394;51.208;8.904;2023-08-31T10:17:40;16.40;99.90
8715;DHT22;4394;51.208;8.904;2023-08-31T10:20:29;16.30;99.90
8715;DHT22;4394;51.208;8.904;2023-08-31T10:23:18;16.30;99.90
8715;DHT22;4394;51.208;8.904;2023-08-31T10:26:08;16.30;99.90
8715;DHT22;4394;51.208;8.904;2023-08-31T10:28:56;16.60;99.90
8715;DHT22;4394;51.208;8.904;2023-08-31T10:31:47;16.70;99.90
8715;DHT22;4394;51.208;8.904;2023-08-31T10:34:39;16.80;99.90
8715;DHT22;4394;51.208;8.904;2023-08-31T10:37:27;16.90;99.90
8715;DHT22;4394;51.208;8.904;2023-08-31T10:40:15;16.90;99.90
8715;DHT22;4394;51.208;8.904;2023-08-31T10:43:16;16.90;99.90
8715;DHT22;4394;51.208;8.904;2023-08-31T10:46:15;17.00;99.90
8715;DHT22;4394;51.208;8.904;2023-08-31T10:49:13;17.00;99.90
8715;DHT22;4394;51.208;8.904;2023-08-31T10:52:16;17.00;99.90
8715;DHT22;4394;51.208;8.904;2023-08-31T10:55:23;16.80;99.90
8715;DHT22;4394;51.208;8.904;2023-08-31T10:58:14;16.70;99.90
8715;DHT22;4394;51.208;8.904;2023-08-31T11:01:02;16.70;99.90
8715;DHT22;4394;51.208;8.904;2023-08-31T11:03:59;16.70;99.90
8715;DHT22;4394;51.208;8.904;2023-08-31T11:06:48;16.70;99.90
8715;DHT22;4394;51.208;8.904;2023-08-31T11:09:36;16.80;99.90
8715;DHT22;4394;51.208;8.904;2023-08-31T11:12:25;16.80;99.90
8715;DHT22;4394;51.208;8.904;2023-08-31T11:15:15;16.80;99.90
8715;DHT22;4394;51.208;8.904;2023-08-31T11:18:05;16.70;99.90
8715;DHT22;4394;51.208;8.904;2023-08-31T11:20:54;16.70;99.90
8715;DHT22;4394;51.208;8.904;2023-08-31T11:23:44;16.70;99.90
8715;DHT22;4394;51.208;8.904;2023-08-31T11:26:32;16.60;99.90
8715;DHT22;4394;51.208;8.904;2023-08-31T11:29:21;16.60;99.90
8715;DHT22;4394;51.208;8.904;2023-08-31T11:32:10;16.60;99.90
8715;DHT22;4394;51.208;8.904;2023-08-31T11:34:58;16.70;99.90
8715;DHT22;4394;51.208;8.904;2023-08-31T11:37:50;16.60;99.90
8715;DHT22;4394;51.208;8.904;2023-08-31T11:40:38;16.70;99.90
8715;DHT22;4394;51.208;8.904;2023-08-31T11:43:27;16.80;99.90
8715;DHT22;4394;51.208;8.904;2023-08-31T11:46:16;17.10;99.90
8715;DHT22;4394;51.208;8.904;2023-08-31T11:49:06;17.10;99.90
8715;DHT22;4394;51.208;8.904;2023-08-31T11:51:55;17.10;99.90
8715;DHT22;4394;51.208;8.904;2023-08-31T11:54:43;17.00;99.90
8715;DHT22;4394;51.208;8.904;2023-08-31T11:57:32;17.00;99.90
8715;DHT22;4394;51.208;8.904;2023-08-31T12:00:22;16.90;99.90
8715;DHT22;4394;51.208;8.904;2023-08-31T12:03:10;16.90;99.90
8715;DHT22;4394;51.208;8.904;2023-08-31T12:06:02;16.90;99.90
8715;DHT22;4394;51.208;8.904;2023-08-31T12:08:53;17.00;99.90
8715;DHT22;4394;51.208;8.904;2023-08-31T12:11:49;17.20;99.90
8715;DHT22;4394;51.208;8.904;2023-08-31T12:14:38;17.40;99.90
8715;DHT22;4394;51.208;8.904;2023-08-31T12:17:27;17.50;99.90
8715;DHT22;4394;51.208;8.904;2023-08-31T12:20:15;17.60;99.90
8715;DHT22;4394;51.208;8.904;2023-08-31T12:23:05;17.70;99.90
8715;DHT22;4394;51.208;8.904;2023-08-31T12:25:53;17.80;99.90
8715;DHT22;4394;51.208;8.904;2023-08-31T12:28:42;17.90;99.90
8715;DHT22;4394;51.208;8.904;2023-08-31T12:31:30;17.90;99.90
8715;DHT22;4394;51.208;8.904;2023-08-31T12:34:19;17.90;99.90
8715;DHT22;4394;51.208;8.904;2023-08-31T12:37:07;17.90;99.90
8715;DHT22;4394;51.208;8.904;2023-08-31T12:39:56;18.00;99.90
8715;DHT22;4394;51.208;8.904;2023-08-31T12:42:45;18.00;99.90
8715;DHT22;4394;51.208;8.904;2023-08-31T12:45:33;18.00;99.90
8715;DHT22;4394;51.208;8.904;2023-08-31T12:48:21;18.10;99.90
8715;DHT22;4394;51.208;8.904;2023-08-31T12:51:10;18.10;99.90
8715;DHT22;4394;51.208;8.904;2023-08-31T12:53:58;18.20;99.90
8715;DHT22;4394;51.208;8.904;2023-08-31T12:56:47;18.20;99.90
8715;DHT22;4394;51.208;8.904;2023-08-31T12:59:35;18.30;99.90
8715;DHT22;4394;51.208;8.904;2023-08-31T13:02:24;18.40;99.90
8715;DHT22;4394;51.208;8.904;2023-08-31T13:05:12;18.50;99.90
8715;DHT22;4394;51.208;8.904;2023-08-31T13:08:00;18.40;99.90
8715;DHT22;4394;51.208;8.904;2023-08-31T13:10:52;18.60;99.90
8715;DHT22;4394;51.208;8.904;2023-08-31T13:13:42;18.50;99.90
8715;DHT22;4394;51.208;8.904;2023-08-31T13:16:30;18.50;99.90
8715;DHT22;4394;51.208;8.904;2023-08-31T13:19:19;18.40;99.90
8715;DHT22;4394;51.208;8.904;2023-08-31T13:22:08;18.40;99.90
8715;DHT22;4394;51.208;8.904;2023-08-31T13:25:02;18.50;99.90
8715;DHT22;4394;51.208;8.904;2023-08-31T13:27:51;18.60;99.90
8715;DHT22;4394;51.208;8.904;2023-08-31T13:30:41;18.60;99.90
8715;DHT22;4394;51.208;8.904;2023-08-31T13:33:30;18.50;99.90
8715;DHT22;4394;51.208;8.904;2023-08-31T13:36:18;18.40;99.90
8715;DHT22;4394;51.208;8.904;2023-08-31T13:39:07;18.50;99.90
8715;DHT22;4394;51.208;8.904;2023-08-31T13:41:55;18.60;99.90
8715;DHT22;4394;51.208;8.904;2023-08-31T13:44:43;18.70;99.90
8715;DHT22;4394;51.208;8.904;2023-08-31T13:47:32;18.80;99.90
8715;DHT22;4394;51.208;8.904;2023-08-31T13:50:20;18.80;99.90
8715;DHT22;4394;51.208;8.904;2023-08-31T13:53:09;18.90;99.90
8715;DHT22;4394;51.208;8.904;2023-08-31T13:55:57;19.00;99.90
8715;DHT22;4394;51.208;8.904;2023-08-31T13:58:46;18.90;99.90
8715;DHT22;4394;51.208;8.904;2023-08-31T14:01:35;18.90;99.90
8715;DHT22;4394;51.208;8.904;2023-08-31T14:04:26;18.90;99.90
8715;DHT22;4394;51.208;8.904;2023-08-31T14:07:14;18.90;99.90
8715;DHT22;4394;51.208;8.904;2023-08-31T14:10:04;18.90;99.90
8715;DHT22;4394;51.208;8.904;2023-08-31T14:12:53;19.00;99.90
8715;DHT22;4394;51.208;8.904;2023-08-31T14:15:44;19.00;99.90
8715;DHT22;4394;51.208;8.904;2023-08-31T14:18:33;19.00;99.90
8715;DHT22;4394;51.208;8.904;2023-08-31T14:21:23;19.10;99.90
8715;DHT22;4394;51.208;8.904;2023-08-31T14:24:11;19.10;99.90
8715;DHT22;4394;51.208;8.904;2023-08-31T14:26:59;19.20;99.90
8715;DHT22;4394;51.208;8.904;2023-08-31T14:29:48;19.10;99.90
8715;DHT22;4394;51.208;8.904;2023-08-31T14:32:36;19.20;99.90
8715;DHT22;4394;51.208;8.904;2023-08-31T14:35:24;19.30;99.90
8715;DHT22;4394;51.208;8.904;2023-08-31T14:38:20;19.40;99.90
8715;DHT22;4394;51.208;8.904;2023-08-31T14:41:08;19.60;99.90
8715;DHT22;4394;51.208;8.904;2023-08-31T14:43:56;19.60;99.90
8715;DHT22;4394;51.208;8.904;2023-08-31T14:46:44;19.40;99.90
8715;DHT22;4394;51.208;8.904;2023-08-31T14:49:32;19.30;99.90
8715;DHT22;4394;51.208;8.904;2023-08-31T14:52:21;19.30;99.90
8715;DHT22;4394;51.208;8.904;2023-08-31T14:55:10;19.20;99.90
8715;DHT22;4394;51.208;8.904;2023-08-31T14:57:58;19.10;99.90
8715;DHT22;4394;51.208;8.904;2023-08-31T15:00:51;19.10;99.90
8715;DHT22;4394;51.208;8.904;2023-08-31T15:03:43;19.00;99.90
8715;DHT22;4394;51.208;8.904;2023-08-31T15:06:31;18.90;99.90
8715;DHT22;4394;51.208;8.904;2023-08-31T15:09:20;19.10;99.90
8715;DHT22;4394;51.208;8.904;2023-08-31T15:12:09;18.90;99.90
8715;DHT22;4394;51.208;8.904;2023-08-31T15:14:58;18.80;99.90
8715;DHT22;4394;51.208;8.904;2023-08-31T15:17:46;18.80;99.90
8715;DHT22;4394;51.208;8.904;2023-08-31T15:20:34;18.80;99.90
8715;DHT22;4394;51.208;8.904;2023-08-31T15:23:24;18.80;99.90
8715;DHT22;4394;51.208;8.904;2023-08-31T15:26:12;18.70;99.90
8715;DHT22;4394;51.208;8.904;2023-08-31T15:29:03;18.70;99.90
8715;DHT22;4394;51.208;8.904;2023-08-31T15:31:51;18.70;99.90
8715;DHT22;4394;51.208;8.904;2023-08-31T15:34:39;18.60;99.90
8715;DHT22;4394;51.208;8.904;2023-08-31T15:37:28;18.50;99.90
8715;DHT22;4394;51.208;8.904;2023-08-31T15:40:16;18.40;99.90
8715;DHT22;4394;51.208;8.904;2023-08-31T15:43:04;18.40;99.90
8715;DHT22;4394;51.208;8.904;2023-08-31T15:45:53;18.40;99.90
8715;DHT22;4394;51.208;8.904;2023-08-31T15:48:42;18.40;99.90
8715;DHT22;4394;51.208;8.904;2023-08-31T15:51:30;18.50;99.90
8715;DHT22;4394;51.208;8.904;2023-08-31T15:54:20;18.50;99.90
8715;DHT22;4394;51.208;8.904;2023-08-31T15:57:08;18.70;99.90
8715;DHT22;4394;51.208;8.904;2023-08-31T15:59:58;18.80;99.90
8715;DHT22;4394;51.208;8.904;2023-08-31T16:02:48;19.00;99.90
8715;DHT22;4394;51.208;8.904;2023-08-31T16:05:36;19.20;99.90
8715;DHT22;4394;51.208;8.904;2023-08-31T16:08:27;19.20;99.90
8715;DHT22;4394;51.208;8.904;2023-08-31T16:11:15;19.40;99.90
8715;DHT22;4394;51.208;8.904;2023-08-31T16:14:09;19.90;99.90
8715;DHT22;4394;51.208;8.904;2023-08-31T16:16:57;19.80;99.90
8715;DHT22;4394;51.208;8.904;2023-08-31T16:19:49;19.70;99.90
8715;DHT22;4394;51.208;8.904;2023-08-31T16:22:38;19.70;99.90
8715;DHT22;4394;51.208;8.904;2023-08-31T16:25:26;19.70;99.90
8715;DHT22;4394;51.208;8.904;2023-08-31T16:28:14;19.70;99.90
8715;DHT22;4394;51.208;8.904;2023-08-31T16:31:02;19.60;99.90
8715;DHT22;4394;51.208;8.904;2023-08-31T16:33:51;19.70;99.90
8715;DHT22;4394;51.208;8.904;2023-08-31T16:36:41;19.70;99.90
8715;DHT22;4394;51.208;8.904;2023-08-31T16:39:29;19.80;99.90
8715;DHT22;4394;51.208;8.904;2023-08-31T16:42:17;19.90;99.90
8715;DHT22;4394;51.208;8.904;2023-08-31T16:45:06;20.00;99.90
8715;DHT22;4394;51.208;8.904;2023-08-31T16:47:55;20.00;99.90
8715;DHT22;4394;51.208;8.904;2023-08-31T16:50:43;20.00;99.90
8715;DHT22;4394;51.208;8.904;2023-08-31T16:53:32;19.90;99.90
8715;DHT22;4394;51.208;8.904;2023-08-31T16:56:25;19.60;99.90
8715;DHT22;4394;51.208;8.904;2023-08-31T16:59:13;19.20;99.90
8715;DHT22;4394;51.208;8.904;2023-08-31T17:02:01;19.00;99.90
8715;DHT22;4394;51.208;8.904;2023-08-31T17:04:50;19.00;99.90
8715;DHT22;4394;51.208;8.904;2023-08-31T17:07:39;18.90;99.90
8715;DHT22;4394;51.208;8.904;2023-08-31T17:10:29;18.70;99.90
8715;DHT22;4394;51.208;8.904;2023-08-31T17:13:17;18.90;99.90
8715;DHT22;4394;51.208;8.904;2023-08-31T17:16:08;18.70;99.90
8715;DHT22;4394;51.208;8.904;2023-08-31T17:18:58;18.60;99.90
8715;DHT22;4394;51.208;8.904;2023-08-31T17:21:46;18.40;99.90
8715;DHT22;4394;51.208;8.904;2023-08-31T17:24:34;18.50;99.90
8715;DHT22;4394;51.208;8.904;2023-08-31T17:27:24;18.40;99.90
8715;DHT22;4394;51.208;8.904;2023-08-31T17:30:12;18.40;99.90
8715;DHT22;4394;51.208;8.904;2023-08-31T17:33:01;18.30;99.90
8715;DHT22;4394;51.208;8.904;2023-08-31T17:35:49;18.20;99.90
8715;DHT22;4394;51.208;8.904;2023-08-31T17:38:38;18.10;99.90
8715;DHT22;4394;51.208;8.904;2023-08-31T17:41:28;17.90;99.90
8715;DHT22;4394;51.208;8.904;2023-08-31T17:44:18;17.60;99.90
8715;DHT22;4394;51.208;8.904;2023-08-31T17:47:08;17.40;99.90
8715;DHT22;4394;51.208;8.904;2023-08-31T17:49:56;17.20;99.90
8715;DHT22;4394;51.208;8.904;2023-08-31T17:52:44;17.10;99.90
8715;DHT22;4394;51.208;8.904;2023-08-31T17:55:33;17.10;99.90
8715;DHT22;4394;51.208;8.904;2023-08-31T17:58:21;16.90;99.90
8715;DHT22;4394;51.208;8.904;2023-08-31T18:01:10;16.70;99.90
8715;DHT22;4394;51.208;8.904;2023-08-31T18:03:58;16.50;99.90
8715;DHT22;4394;51.208;8.904;2023-08-31T18:06:50;16.40;99.90
8715;DHT22;4394;51.208;8.904;2023-08-31T18:09:39;16.20;99.90
8715;DHT22;4394;51.208;8.904;2023-08-31T18:12:27;16.10;99.90
8715;DHT22;4394;51.208;8.904;2023-08-31T18:15:15;16.00;99.90
8715;DHT22;4394;51.208;8.904;2023-08-31T18:18:05;16.00;99.90
8715;DHT22;4394;51.208;8.904;2023-08-31T18:20:56;15.80;99.90
8715;DHT22;4394;51.208;8.904;2023-08-31T18:23:44;15.70;99.90
8715;DHT22;4394;51.208;8.904;2023-08-31T18:26:32;15.50;99.90